Time;durP1;ratioP1;P1;durP2;ratioP2;P2;SDS_P1;SDS_P2;PMS_P1;PMS_P2;Temp;Humidity;BMP_temperature;BMP_pressure;BME280_temperature;BME280_humidity;BME280_pressure;Samples;Min_cycle;Max_cycle;Signal;HPM_P1;HPM_P2
2022/10/05 00:02:18;;;;;;;26.45;9.15;;;;;;;14.09;65.61;101514.31;4999214;28;20541;-88
2022/10/05 00:04:44;;;;;;;61.97;9.90;;;;;;;14.10;65.65;101524.97;5006664;28;20050;-90
2022/10/05 00:07:15;;;;;;;35.65;12.90;;;;;;;13.96;65.50;101503.63;4989560;28;20023;-88
2022/10/05 00:09:42;;;;;;;37.55;19.60;;;;;;;14.15;64.99;101541.72;4989622;28;20050;-90
2022/10/05 00:12:16;;;;;;;52.53;28.48;;;;;;;13.88;64.74;101499.81;4999777;28;20122;-90
2022/10/05 00:14:44;;;;;;;53.45;27.00;;;;;;;14.07;64.65;101549.59;5016287;28;20041;-89
2022/10/05 00:17:16;;;;;;;49.15;28.75;;;;;;;14.03;65.16;101558.09;4994400;28;20034;-88
2022/10/05 00:19:42;;;;;;;;;;;;;;;14.06;64.90;101565.94;4993953;28;20030;-87
2022/10/05 00:22:08;;;;;;;68.07;29.70;;;;;;;13.94;65.12;101570.47;4975355;28;19909;-87
2022/10/05 00:24:34;;;;;;;66.40;30.42;;;;;;;13.85;64.93;101571.22;4975503;28;20754;-88
2022/10/05 00:27:21;;;;;;;63.22;29.08;;;;;;;13.68;64.78;101557.34;4951234;29;20043;-89
2022/10/05 00:29:48;;;;;;;62.47;29.50;;;;;;;13.50;64.60;101541.59;4951305;29;20047;-87
2022/10/05 00:32:13;;;;;;;56.45;28.48;;;;;;;13.31;64.95;101524.25;4950778;29;20063;-88
2022/10/05 00:34:38;;;;;;;61.72;26.83;;;;;;;13.44;64.98;101554.72;4951620;29;20481;-87
2022/10/05 00:37:05;;;;;;;51.58;27.38;;;;;;;13.17;65.29;101527.19;4935949;29;20035;-88
2022/10/05 00:39:33;;;;;;;41.38;23.50;;;;;;;13.32;65.51;101553.00;4959758;29;20051;-88
2022/10/05 00:41:58;;;;;;;37.63;19.88;;;;;;;13.49;65.67;101591.22;4952424;29;20848;-88
2022/10/05 00:44:31;;;;;;;37.10;18.88;;;;;;;13.51;65.70;101585.72;4951868;29;20035;-89
2022/10/05 00:47:04;;;;;;;32.70;17.17;;;;;;;13.41;65.57;101566.66;4953181;28;20106;-87
2022/10/05 00:49:32;;;;;;;23.08;14.57;;;;;;;13.55;65.80;101587.16;4953009;28;20031;-84
2022/10/05 00:52:42;;;;;;;32.65;14.77;;;;;;;13.58;65.44;101589.63;4951662;28;20214;-88
2022/10/05 00:55:26;;;;;;;53.17;16.60;;;;;;;13.21;65.32;101515.16;4913658;29;20032;-88
2022/10/05 00:58:09;;;;;;;30.10;14.82;;;;;;;13.68;65.14;101597.88;4912494;29;20072;-87
2022/10/05 01:00:45;;;;;;;51.15;15.88;;;;;;;13.66;64.92;101580.94;4912309;29;20084;-86
2022/10/05 01:03:19;;;;;;;32.30;14.32;;;;;;;13.69;64.71;101599.63;4912385;29;20083;-86
2022/10/05 01:05:57;;;;;;;22.27;13.00;;;;;;;13.73;64.70;101596.53;4950246;28;20043;-87
2022/10/05 01:08:57;;;;;;;27.55;12.75;;;;;;;13.77;64.56;101595.31;4950623;28;20077;-88
2022/10/05 01:11:34;;;;;;;22.35;12.95;;;;;;;13.46;64.37;101544.66;4950378;28;20042;-87
2022/10/05 01:14:17;;;;;;;17.55;11.75;;;;;;;13.54;64.28;101569.25;4950571;28;20082;-86
2022/10/05 01:16:45;;;;;;;21.30;11.10;;;;;;;13.80;64.20;101599.63;4938958;28;20163;-88
2022/10/05 01:19:16;;;;;;;55.70;13.15;;;;;;;13.76;64.39;101604.41;4989395;28;20513;-88
2022/10/05 01:21:52;;;;;;;20.27;10.63;;;;;;;13.76;64.49;101612.50;4995807;28;20099;-87
2022/10/05 01:24:43;;;;;;;18.13;8.50;;;;;;;13.80;64.64;101605.91;4985591;28;20018;-88
2022/10/05 01:27:18;;;;;;;103.53;14.02;;;;;;;13.84;64.31;101603.81;5047930;28;20025;-88
2022/10/05 01:29:55;;;;;;;41.80;10.57;;;;;;;13.57;64.10;101566.31;5048332;28;20021;-88
2022/10/05 01:32:29;;;;;;;16.90;10.65;;;;;;;13.63;64.17;101571.22;5037356;28;20059;-88
2022/10/05 01:35:26;;;;;;;34.58;10.38;;;;;;;13.94;63.87;101612.91;5037683;28;20100;-89
2022/10/05 01:38:16;;;;;;;20.45;13.85;;;;;;;13.61;63.63;101559.66;5033750;28;20033;-88
2022/10/05 01:41:01;;;;;;;27.50;14.95;;;;;;;13.94;63.61;101621.88;5030201;28;20099;-88
2022/10/05 01:43:57;;;;;;;41.03;14.85;;;;;;;13.93;63.31;101617.47;5031941;28;20037;-88
2022/10/05 01:46:41;;;;;;;27.38;16.52;;;;;;;13.68;63.22;101578.97;4950330;29;20039;-88
2022/10/05 01:49:18;;;;;;;24.73;16.67;;;;;;;13.92;63.13;101629.25;4933758;29;20032;-87
2022/10/05 01:52:13;;;;;;;34.55;15.57;;;;;;;13.59;62.88;101577.84;4933590;29;20039;-88
2022/10/05 01:55:03;;;;;;;26.67;16.00;;;;;;;13.89;63.25;101626.78;4949898;29;20035;-88
2022/10/05 01:57:37;;;;;;;35.45;17.27;;;;;;;13.90;63.23;101627.66;4950109;29;20151;-88
2022/10/05 02:00:12;;;;;;;35.67;16.45;;;;;;;13.88;63.20;101635.88;4934289;29;20042;-89
2022/10/05 02:02:43;;;;;;;33.20;18.77;;;;;;;13.44;63.08;101561.00;4950833;29;20142;-88
2022/10/05 02:05:23;;;;;;;29.23;18.80;;;;;;;13.51;63.12;101593.81;4952557;29;20075;-88
2022/10/05 02:07:51;;;;;;;31.35;18.58;;;;;;;13.79;63.05;101635.78;4958444;29;20108;-87
2022/10/05 02:10:27;;;;;;;29.92;18.45;;;;;;;13.33;62.76;101546.63;4934104;29;20043;-87
2022/10/05 02:13:00;;;;;;;35.45;19.05;;;;;;;13.65;62.37;101609.81;4937567;29;20071;-86
2022/10/05 02:15:33;;;;;;;33.42;17.73;;;;;;;13.71;62.57;101628.25;4953874;29;20054;-88
2022/10/05 02:18:06;;;;;;;27.88;18.73;;;;;;;13.36;62.60;101600.44;4953790;29;20035;-88
2022/10/05 02:20:36;;;;;;;26.52;16.90;;;;;;;13.36;62.50;101584.22;4953850;29;20035;-87
2022/10/05 02:23:09;;;;;;;44.08;18.75;;;;;;;13.54;62.58;101620.63;4972029;28;20472;-88
2022/10/05 02:25:39;;;;;;;90.18;22.58;;;;;;;13.58;62.78;101630.19;4976407;28;20030;-88
2022/10/05 02:28:31;;;;;;;118.10;21.63;;;;;;;13.66;63.04;101668.31;4994228;28;20023;-88
2022/10/05 02:31:09;;;;;;;;;;;;;;;13.62;62.82;101661.41;4977184;28;20093;-87
2022/10/05 02:33:35;;;;;;;51.88;18.52;;;;;;;13.52;63.04;101655.84;4992718;28;19961;-86
2022/10/05 02:36:14;;;;;;;36.85;18.42;;;;;;;13.42;63.16;101635.06;4997928;28;20089;-86
2022/10/05 02:39:05;;;;;;;185.20;26.48;;;;;;;13.56;63.34;101668.16;4995650;28;20050;-86
2022/10/05 02:41:51;;;;;;;49.28;18.55;;;;;;;13.36;63.42;101635.56;4996312;28;20034;-88
2022/10/05 02:44:40;;;;;;;28.83;17.83;;;;;;;13.41;63.26;101641.44;5001157;28;20030;-87
2022/10/05 02:47:19;;;;;;;43.60;18.55;;;;;;;13.60;63.38;101679.59;4982432;28;20040;-87
2022/10/05 02:49:54;;;;;;;29.35;16.83;;;;;;;13.48;63.40;101657.09;5013825;28;20026;-88
2022/10/05 02:52:38;;;;;;;28.48;16.67;;;;;;;13.54;63.29;101674.66;5017003;28;20027;-87
2022/10/05 02:55:24;;;;;;;28.92;16.27;;;;;;;13.59;63.37;101680.56;5018291;28;20026;-86
2022/10/05 02:58:02;;;;;;;32.13;17.58;;;;;;;13.19;63.60;101625.16;4993844;28;20031;-88
2022/10/05 03:00:35;;;;;;;32.85;17.63;;;;;;;13.50;63.95;101673.19;4996268;28;20026;-87
2022/10/05 03:03:09;;;;;;;40.60;18.35;;;;;;;13.51;63.84;101680.31;4994905;28;20061;-85
2022/10/05 03:05:45;;;;;;;47.03;18.83;;;;;;;13.00;64.14;101602.22;4976955;28;20120;-87
2022/10/05 03:08:18;;;;;;;47.63;17.85;;;;;;;13.38;64.20;101663.31;4977377;28;20050;-88
2022/10/05 03:11:21;;;;;;;36.40;14.88;;;;;;;13.47;64.25;101687.78;4993197;28;20057;-87
2022/10/05 03:14:08;;;;;;;24.23;13.30;;;;;;;13.50;64.20;101692.97;4994772;28;20033;-86
2022/10/05 03:17:01;;;;;;;34.90;15.77;;;;;;;13.46;64.12;101694.16;4994867;28;20026;-88
2022/10/05 03:20:00;;;;;;;36.08;15.85;;;;;;;13.29;64.23;101669.41;4994952;28;20030;-87
2022/10/05 03:22:51;;;;;;;37.72;16.70;;;;;;;13.34;64.66;101688.81;4994969;28;20037;-87
2022/10/05 03:25:50;;;;;;;31.42;16.63;;;;;;;13.08;64.87;101671.91;4994508;28;20480;-87
2022/10/05 03:28:19;;;;;;;38.30;17.13;;;;;;;13.19;64.79;101700.78;4993998;28;20073;-87
2022/10/05 03:31:19;;;;;;;22.92;14.38;;;;;;;13.24;64.63;101704.88;4994700;28;20026;-87
2022/10/05 03:33:56;;;;;;;35.97;15.60;;;;;;;13.07;64.73;101675.53;5003697;28;20478;-87
2022/10/05 03:36:43;;;;;;;24.02;14.07;;;;;;;13.25;64.85;101716.53;4981912;28;20031;-86
2022/10/05 03:39:27;;;;;;;46.50;14.55;;;;;;;13.24;64.52;101720.25;4994662;28;20478;-87
2022/10/05 03:42:06;;;;;;;30.15;13.65;;;;;;;13.22;64.58;101720.34;4995634;28;20528;-87
2022/10/05 03:44:58;;;;;;;27.20;12.80;;;;;;;13.05;65.15;101696.41;4995092;28;20088;-89
2022/10/05 03:47:49;;;;;;;25.35;11.10;;;;;;;13.15;65.06;101704.72;5022911;28;20123;-88
2022/10/05 03:50:36;;;;;;;45.90;11.80;;;;;;;13.29;65.03;101728.84;5034467;28;20030;-89
2022/10/05 03:53:09;;;;;;;33.25;10.55;;;;;;;13.06;64.98;101687.31;5035814;28;20048;-88
2022/10/05 03:56:06;;;;;;;20.35;9.05;;;;;;;13.37;64.90;101731.84;5018528;28;20026;-90
2022/10/05 03:58:41;;;;;;;24.55;8.98;;;;;;;13.41;64.61;101739.59;5022933;28;20025;-90
2022/10/05 04:01:18;;;;;;;26.27;9.20;;;;;;;13.16;64.25;101685.69;5022821;28;20025;-89
2022/10/05 04:04:10;;;;;;;16.58;6.93;;;;;;;13.51;64.00;101742.47;4970376;28;20054;-87
2022/10/05 04:06:45;;;;;;;32.37;7.07;;;;;;;13.53;64.05;101754.03;4986911;28;20034;-88
2022/10/05 04:09:20;;;;;;;21.05;8.07;;;;;;;13.49;63.56;101747.13;4992538;28;20041;-86
2022/10/05 04:11:53;;;;;;;28.77;7.78;;;;;;;13.47;63.94;101747.25;4996704;28;20038;-89
2022/10/05 04:14:43;;;;;;;17.08;6.22;;;;;;;13.53;63.50;101743.22;4978251;28;20087;-88
2022/10/05 04:17:20;;;;;;;22.65;8.43;;;;;;;13.31;63.19;101722.34;4954420;28;20043;-80
2022/10/05 04:20:16;;;;;;;11.88;6.97;;;;;;;13.56;63.34;101749.25;4950796;29;20043;-79
2022/10/05 04:23:04;;;;;;;46.83;8.30;;;;;;;13.65;63.02;101766.59;4912254;29;20455;-79
2022/10/05 04:25:50;;;;;;;18.85;7.35;;;;;;;13.58;62.91;101752.69;4875264;29;20762;-82
2022/10/05 04:28:38;;;;;;;36.45;8.38;;;;;;;13.59;62.89;101767.94;4877710;29;20056;-82
2022/10/05 04:31:09;;;;;;;21.25;7.70;;;;;;;13.64;63.00;101772.97;4856431;29;20054;-81
2022/10/05 04:33:35;;;;;;;24.38;7.60;;;;;;;13.49;62.77;101747.97;4855841;29;20212;-81
2022/10/05 04:36:37;;;;;;;37.20;8.85;;;;;;;13.83;62.21;101773.31;4856699;29;20038;-81
2022/10/05 04:39:16;;;;;;;40.88;9.68;;;;;;;13.59;62.51;101748.16;4820606;29;20050;-82
2022/10/05 04:41:59;;;;;;;26.45;8.60;;;;;;;13.81;61.90;101777.13;4819959;29;20422;-84
2022/10/05 04:44:34;;;;;;;40.65;9.85;;;;;;;13.85;61.83;101787.56;4820387;29;20396;-81
2022/10/05 04:47:24;;;;;;;20.33;8.93;;;;;;;13.85;61.71;101792.97;4820103;29;20050;-81
2022/10/05 04:49:55;;;;;;;78.45;11.38;;;;;;;13.87;61.92;101792.88;4819934;29;20074;-80
2022/10/05 04:52:39;;;;;;;80.32;10.35;;;;;;;13.92;61.80;101801.50;4820326;29;20048;-81
2022/10/05 04:55:25;;;;;;;285.40;21.33;;;;;;;14.02;61.66;101795.28;4820091;29;20042;-80
2022/10/05 04:58:05;;;;;;;70.72;10.63;;;;;;;14.13;61.54;101810.66;4820397;29;20038;-80
2022/10/05 05:00:39;;;;;;;76.28;12.43;;;;;;;14.17;60.92;101820.28;4837548;29;20056;-85
2022/10/05 05:03:52;;;;;;;30.48;9.43;;;;;;;14.15;61.33;101816.81;4888021;29;20048;-83
2022/10/05 05:06:36;;;;;;;237.85;19.88;;;;;;;14.05;61.38;101795.03;4837491;29;20564;-90
2022/10/05 05:09:22;;;;;;;83.45;13.23;;;;;;;14.24;61.08;101824.22;4871989;29;20080;-88
2022/10/05 05:12:11;;;;;;;34.92;11.02;;;;;;;13.79;61.12;101743.94;4859379;29;20072;-87
2022/10/05 05:14:55;;;;;;;51.38;10.00;;;;;;;14.33;60.75;101825.38;4885350;29;20051;-85
2022/10/05 05:17:35;;;;;;;221.32;20.45;;;;;;;14.30;60.42;101825.59;4916223;29;20059;-83
2022/10/05 05:20:39;;;;;;;425.45;36.63;;;;;;;14.34;60.69;101833.38;4922323;29;20032;-87
2022/10/05 05:23:36;;;;;;;107.63;15.63;;;;;;;14.39;61.08;101828.47;4932408;29;20027;-88
2022/10/05 05:26:15;;;;;;;304.20;28.98;;;;;;;14.53;60.93;101832.78;4933321;29;20067;-89
2022/10/05 05:28:45;;;;;;;68.22;12.35;;;;;;;14.59;60.42;101843.13;4933368;29;20059;-83
2022/10/05 05:34:31;;;;;;;282.40;25.00;;;;;;;14.80;59.98;101841.44;5034347;28;20094;-90
2022/10/05 05:37:39;;;;;;;104.82;14.88;;;;;;;14.75;59.61;101823.84;5017112;28;20057;-88
2022/10/05 05:40:26;;;;;;;229.73;23.50;;;;;;;14.95;59.55;101856.47;4954283;29;20139;-88
2022/10/05 05:42:56;;;;;;;34.55;9.80;;;;;;;14.84;59.32;101821.25;4954671;29;20042;-89
2022/10/05 05:45:50;;;;;;;39.55;8.95;;;;;;;14.76;58.99;101817.44;4955717;28;20059;-88
2022/10/05 05:48:29;;;;;;;32.35;9.85;;;;;;;14.74;59.26;101824.84;4942283;29;20041;-88
2022/10/05 05:51:29;;;;;;;49.38;10.07;;;;;;;14.90;59.71;101880.34;4958446;28;20517;-87
2022/10/05 05:54:26;;;;;;;30.58;11.00;;;;;;;14.93;60.32;101880.13;4959200;29;20090;-88
2022/10/05 05:57:03;;;;;;;74.53;20.50;;;;;;;14.72;60.69;101846.63;4935981;29;20491;-88
2022/10/05 05:59:41;;;;;;;45.55;10.15;;;;;;;14.74;60.38;101855.47;4935280;29;20047;-79
2022/10/05 06:02:16;;;;;;;20.00;8.40;;;;;;;14.86;60.65;101881.56;4933482;29;20047;-80
2022/10/05 06:04:50;;;;;;;21.63;8.85;;;;;;;14.82;60.59;101865.72;4897897;29;20886;-78
2022/10/05 06:07:23;;;;;;;38.40;10.05;;;;;;;14.81;61.04;101874.81;4969406;28;20079;-80
2022/10/05 06:10:04;;;;;;;23.30;10.77;;;;;;;14.74;61.30;101862.75;4971234;28;20129;-81
2022/10/05 06:12:40;;;;;;;24.98;9.85;;;;;;;14.84;61.26;101890.81;4971198;28;20034;-80
2022/10/05 06:15:36;;;;;;;28.85;8.30;;;;;;;14.81;60.71;101882.94;4971457;28;20039;-81
2022/10/05 06:18:09;;;;;;;15.38;7.28;;;;;;;14.63;60.38;101869.00;5032517;28;20029;-80
2022/10/05 06:21:01;;;;;;;22.60;7.55;;;;;;;14.81;60.22;101897.34;5032015;28;20121;-80
2022/10/05 06:23:42;;;;;;;41.50;9.25;;;;;;;14.75;60.40;101900.53;5032088;28;20068;-80
2022/10/05 06:26:14;;;;;;;35.58;20.58;;;;;;;14.80;60.15;101902.91;5031976;28;20045;-80
2022/10/05 06:28:40;;;;;;;;;;;;;;;14.80;60.00;101895.59;5033117;28;20029;-80
2022/10/05 06:31:08;;;;;;;25.90;7.50;;;;;;;14.77;59.88;101903.97;5039454;28;20427;-79
2022/10/05 06:33:52;;;;;;;25.35;8.48;;;;;;;14.76;59.90;101904.13;5032661;28;20049;-79
2022/10/05 06:36:51;;;;;;;23.80;10.32;;;;;;;14.67;59.42;101911.97;5032581;28;20033;-79
2022/10/05 06:39:36;;;;;;;39.35;10.15;;;;;;;14.70;59.26;101916.28;5033800;28;20025;-82
2022/10/05 06:42:25;;;;;;;42.50;12.43;;;;;;;14.71;59.04;101907.16;5032619;28;20033;-78
2022/10/05 06:45:00;;;;;;;21.08;8.68;;;;;;;14.72;59.34;101900.78;5035312;28;20029;-82
2022/10/05 06:47:30;;;;;;;44.95;9.60;;;;;;;14.75;59.28;101900.53;5040733;28;20028;-80
2022/10/05 06:50:35;;;;;;;50.28;14.20;;;;;;;14.80;59.21;101902.91;5056873;28;20037;-81
2022/10/05 06:53:07;;;;;;;25.40;9.38;;;;;;;14.85;58.90;101909.66;5057651;28;20017;-87
2022/10/05 06:56:00;;;;;;;27.73;9.38;;;;;;;14.81;59.20;101896.47;5043508;28;20041;-86
2022/10/05 06:58:59;;;;;;;19.67;8.95;;;;;;;14.91;59.24;101909.19;5032578;28;20030;-85
2022/10/05 07:01:43;;;;;;;41.63;12.15;;;;;;;15.04;59.38;101918.06;5033693;28;20036;-84
2022/10/05 07:04:59;;;;;;;20.08;9.38;;;;;;;15.09;59.34;101912.28;5033120;28;20021;-83
2022/10/05 07:07:46;;;;;;;23.15;10.10;;;;;;;14.95;59.51;101867.28;5031884;28;20397;-86
2022/10/05 07:10:45;;;;;;;48.58;23.05;;;;;;;15.06;59.80;101875.44;5034672;28;20037;-87
2022/10/05 07:13:35;;;;;;;47.03;12.05;;;;;;;15.39;59.30;101928.78;5032626;28;20072;-84
2022/10/05 07:16:37;;;;;;;23.27;10.23;;;;;;;15.49;59.37;101920.78;5031791;28;20059;-83
2022/10/05 07:19:21;;;;;;;22.00;9.32;;;;;;;15.60;59.24;101926.19;5032743;28;20029;-85
2022/10/05 07:22:18;;;;;;;19.00;7.28;;;;;;;15.58;58.55;101920.91;5031871;28;20110;-84
2022/10/05 07:24:50;;;;;;;14.27;7.60;;;;;;;15.63;58.61;101918.69;5032469;28;20044;-82
2022/10/05 07:27:21;;;;;;;15.25;7.53;;;;;;;15.70;58.41;101924.47;5032657;28;20112;-82
2022/10/05 07:29:53;;;;;;;33.47;7.97;;;;;;;15.61;58.53;101898.09;5035565;28;20030;-88
2022/10/05 07:32:32;;;;;;;19.37;7.13;;;;;;;15.65;57.96;101892.31;5042389;28;20136;-85
2022/10/05 07:38:30;;;;;;;34.92;10.23;;;;;;;15.84;57.96;101905.19;5033458;28;20044;-87
2022/10/05 07:40:59;;;;;;;21.63;8.95;;;;;;;16.07;57.55;101915.00;5031797;28;20563;-88
2022/10/05 07:43:32;;;;;;;100.40;15.68;;;;;;;16.11;57.56;101904.75;5015300;28;20540;-88
2022/10/05 07:46:15;;;;;;;59.03;24.15;;;;;;;16.18;57.70;101893.22;5015941;28;20030;-87
2022/10/05 07:48:49;;;;;;;21.65;9.15;;;;;;;16.42;57.60;101924.72;5032786;28;20629;-86
2022/10/05 07:51:23;;;;;;;21.52;7.80;;;;;;;16.55;57.29;101928.13;5014777;28;20124;-80
2022/10/05 07:53:58;;;;;;;60.75;11.10;;;;;;;16.68;57.26;101918.81;5032124;28;20550;-83
2022/10/05 07:56:35;;;;;;;32.92;10.50;;;;;;;16.64;57.05;101905.59;5025733;28;20033;-87
2022/10/05 07:59:10;;;;;;;32.67;10.25;;;;;;;16.91;57.01;101930.38;5047200;28;20030;-83
2022/10/05 08:01:46;;;;;;;23.73;9.38;;;;;;;16.77;56.97;101900.84;5040612;28;20040;-78
2022/10/05 08:04:24;;;;;;;26.73;10.88;;;;;;;16.98;56.87;101911.69;5056743;28;20081;-86
2022/10/05 08:06:55;;;;;;;15.55;8.52;;;;;;;17.11;56.22;101901.44;5039607;28;20031;-88
2022/10/05 08:09:36;;;;;;;91.20;12.82;;;;;;;17.48;56.41;101942.53;5056055;28;20073;-90
2022/10/05 08:12:13;;;;;;;26.23;8.60;;;;;;;17.50;55.88;101902.44;5039172;28;20056;-90
2022/10/05 08:15:13;;;;;;;35.47;14.25;;;;;;;17.85;55.63;101930.09;5047621;28;20026;-88
2022/10/05 08:18:00;;;;;;;26.48;8.43;;;;;;;17.99;54.85;101929.69;5020165;28;20033;-94
2022/10/05 08:20:55;;;;;;;20.33;5.85;;;;;;;18.09;53.02;101930.56;4997036;28;20054;-96
2022/10/05 08:23:22;;;;;;;6.15;3.38;;;;;;;18.25;51.05;101925.41;4990196;28;20039;-95
2022/10/05 08:26:25;;;;;;;28.52;4.57;;;;;;;18.44;49.82;101919.94;5062881;23;20049;-95
2022/10/05 08:29:10;;;;;;;14.20;3.00;;;;;;;18.63;48.09;101920.97;5003973;28;20034;-95
2022/10/05 08:31:38;;;;;;;22.45;5.97;;;;;;;18.47;48.93;101886.97;5020698;28;20092;-95
2022/10/05 08:34:19;;;;;;;15.60;5.40;;;;;;;18.69;49.89;101890.41;4999285;28;20034;-94
2022/10/05 08:37:04;;;;;;;15.15;6.22;;;;;;;19.00;49.92;101921.91;5002885;28;20053;-93
2022/10/05 08:39:39;;;;;;;24.27;3.78;;;;;;;19.15;47.91;101914.09;5014842;28;20469;-94
2022/10/05 08:42:23;;;;;;;21.88;4.60;;;;;;;19.26;48.60;101916.66;5014963;28;20045;-94
2022/10/05 08:45:22;;;;;;;22.35;6.85;;;;;;;19.28;48.01;101892.81;5010688;28;20036;-87
2022/10/05 08:48:08;;;;;;;8.30;3.00;;;;;;;19.44;46.68;101899.38;5014863;28;20064;-92
2022/10/05 08:51:06;;;;;;;14.55;3.25;;;;;;;19.63;45.75;101897.56;4995691;28;20092;-95
2022/10/05 08:54:02;;;;;;;139.30;7.40;;;;;;;19.68;44.26;101903.41;5014596;28;20037;-90
2022/10/05 08:56:42;;;;;;;40.00;5.55;;;;;;;19.57;44.06;101882.63;4996843;28;20033;-95
2022/10/05 08:59:35;;;;;;;16.80;2.90;;;;;;;19.67;44.29;101860.72;4999157;28;20034;-94
2022/10/05 09:02:18;;;;;;;32.47;3.42;;;;;;;19.85;43.15;101897.09;4998816;28;20057;-92
2022/10/05 09:05:02;;;;;;;10.18;2.25;;;;;;;19.84;42.07;101852.59;4997896;28;20111;-91
2022/10/05 09:08:00;;;;;;;2.50;1.58;;;;;;;20.07;42.09;101864.75;4995177;28;20027;-94
2022/10/05 09:10:31;;;;;;;4.13;2.15;;;;;;;20.34;41.58;101891.16;4975919;28;20058;-93
2022/10/05 09:13:02;;;;;;;186.35;12.68;;;;;;;20.52;41.16;101894.72;4975962;28;20042;-93
2022/10/05 09:15:46;;;;;;;12.75;3.55;;;;;;;20.61;40.51;101901.97;4974321;28;20472;-92
2022/10/05 09:18:54;;;;;;;6.18;2.17;;;;;;;20.70;40.02;101891.13;4984440;28;20100;-91
2022/10/05 09:21:41;;;;;;;12.55;1.80;;;;;;;20.77;39.46;101894.91;5000144;28;20022;-90
2022/10/05 09:24:13;;;;;;;8.70;2.25;;;;;;;20.92;38.07;101899.63;4998960;28;20134;-89
2022/10/05 09:27:10;;;;;;;2.77;2.20;;;;;;;20.95;37.49;101903.91;4998194;28;20074;-87
2022/10/05 09:29:57;;;;;;;8.63;2.10;;;;;;;20.98;37.23;101896.25;4974874;28;20134;-90
2022/10/05 09:32:38;;;;;;;26.40;2.85;;;;;;;21.04;36.42;101903.81;4958966;28;20053;-90
2022/10/05 09:35:20;;;;;;;22.45;2.70;;;;;;;21.23;36.93;101908.22;4939088;29;20070;-91
2022/10/05 09:37:54;;;;;;;25.63;3.00;;;;;;;21.13;36.86;101866.44;4941404;29;20043;-90
2022/10/05 09:40:57;;;;;;;10.85;1.85;;;;;;;21.39;36.63;101878.22;4952138;29;20047;-87
2022/10/05 09:43:58;;;;;;;649.25;49.90;;;;;;;21.75;35.37;101906.22;4958757;28;20042;-89
2022/10/05 09:46:51;;;;;;;15.85;2.08;;;;;;;21.81;34.74;101908.28;4946305;29;20040;-89
2022/10/05 09:49:34;;;;;;;6.20;1.77;;;;;;;21.82;35.24;101876.28;4948053;29;20043;-93
2022/10/05 09:52:35;;;;;;;6.55;1.90;;;;;;;22.12;35.02;101894.88;4925185;29;20847;-92
2022/10/05 09:55:26;;;;;;;22.00;2.53;;;;;;;22.14;34.90;101903.78;4895748;29;20129;-92
2022/10/05 09:57:58;;;;;;;8.38;2.10;;;;;;;22.11;34.40;101904.97;4897843;29;20028;-88
2022/10/05 10:00:39;;;;;;;60.65;4.55;;;;;;;22.14;33.23;101893.69;4897776;29;20080;-92
2022/10/05 10:03:17;;;;;;;6.60;2.00;;;;;;;22.13;32.55;101896.59;4885651;29;20048;-95
2022/10/05 10:05:48;;;;;;;13.73;2.35;;;;;;;22.20;32.29;101898.47;4908283;29;20106;-93
2022/10/05 10:08:14;;;;;;;17.63;4.90;;;;;;;22.26;31.60;101905.19;4937359;29;20031;-96
2022/10/05 10:11:07;;;;;;;76.72;5.70;;;;;;;22.18;32.34;101859.44;4936241;29;20042;-91
2022/10/05 10:13:52;;;;;;;137.80;7.47;;;;;;;22.51;32.37;101884.97;4936863;29;20070;-87
2022/10/05 10:16:44;;;;;;;36.53;4.32;;;;;;;22.53;37.57;101893.03;4935632;29;20039;-88
2022/10/05 10:19:23;;;;;;;21.98;3.50;;;;;;;22.34;37.88;101891.47;4930644;29;20178;-89
2022/10/05 10:22:17;;;;;;;110.57;8.93;;;;;;;21.94;38.42;101836.63;4929815;29;20073;-86
2022/10/05 10:25:20;;;;;;;123.97;6.78;;;;;;;21.99;38.60;101872.56;4930159;29;20070;-88
2022/10/05 10:28:13;;;;;;;14.70;3.13;;;;;;;21.91;38.38;101870.69;4915485;29;20047;-81
2022/10/05 10:30:57;;;;;;;12.45;3.35;;;;;;;22.13;38.46;101875.53;4919628;28;20032;-83
2022/10/05 10:34:01;;;;;;;16.10;3.03;;;;;;;22.17;37.99;101865.94;4995254;28;20033;-93
2022/10/05 10:36:59;;;;;;;97.45;7.03;;;;;;;22.18;37.54;101840.25;4954330;29;20546;-85
2022/10/05 10:39:36;;;;;;;282.83;20.27;;;;;;;22.48;38.25;101874.34;4968089;28;20024;-89
2022/10/05 10:42:32;;;;;;;50.05;6.57;;;;;;;22.68;37.74;101877.63;4946612;29;20138;-84
2022/10/05 10:45:07;;;;;;;64.55;5.18;;;;;;;22.84;37.05;101879.50;4969765;28;20042;-88
2022/10/05 10:48:09;;;;;;;31.67;3.55;;;;;;;22.88;37.57;101867.97;4985708;28;20092;-88
2022/10/05 10:50:47;;;;;;;;;;;;;;;22.92;37.62;101866.59;4996971;28;20046;-87
2022/10/05 10:53:28;;;;;;;13.50;2.63;;;;;;;22.89;36.73;101860.59;4969769;28;19938;-84
2022/10/05 10:56:15;;;;;;;28.98;4.30;;;;;;;22.69;35.73;101813.47;4975394;28;20094;-85
2022/10/05 10:59:11;;;;;;;26.30;2.83;;;;;;;23.00;36.70;101868.44;4977643;28;20074;-89
2022/10/05 11:01:50;;;;;;;29.33;3.22;;;;;;;22.53;36.31;101818.97;4971665;28;20111;-83
2022/10/05 11:05:00;;;;;;;16.40;2.65;;;;;;;22.98;36.97;101865.03;4971949;28;20094;-86
2022/10/05 11:08:01;;;;;;;16.40;3.20;;;;;;;23.20;37.25;101861.56;4971343;28;20043;-88
2022/10/05 11:10:35;;;;;;;22.50;3.80;;;;;;;23.12;36.88;101867.03;4972240;28;20043;-88
2022/10/05 11:13:10;;;;;;;21.55;2.72;;;;;;;23.15;37.44;101855.72;4979738;28;20521;-85
2022/10/05 11:15:59;;;;;;;5.75;2.55;;;;;;;23.39;37.55;101855.69;5016335;28;20109;-91
2022/10/05 11:18:25;;;;;;;7.05;2.38;;;;;;;23.44;35.17;101845.00;5003715;28;20033;-87
2022/10/05 11:20:54;;;;;;;17.40;2.53;;;;;;;23.41;35.39;101845.34;5013640;28;20037;-93
2022/10/05 11:23:26;;;;;;;165.00;9.18;;;;;;;23.05;35.42;101823.00;5013634;28;20067;-80
2022/10/05 11:26:11;;;;;;;49.22;4.10;;;;;;;22.95;36.12;101854.41;5012085;28;20060;-81
2022/10/05 11:28:52;;;;;;;33.05;4.05;;;;;;;22.89;37.14;101855.13;5012008;28;20069;-84
2022/10/05 11:31:39;;;;;;;33.95;3.63;;;;;;;22.46;37.18;101827.03;5014093;28;20029;-86
2022/10/05 11:34:19;;;;;;;133.18;9.05;;;;;;;22.45;37.58;101808.88;5002596;28;20034;-83
2022/10/05 11:37:18;;;;;;;10.40;2.83;;;;;;;22.48;37.96;101813.16;5015256;28;20025;-85
2022/10/05 11:40:11;;;;;;;38.78;3.50;;;;;;;22.78;37.25;101831.66;5011557;28;20034;-84
2022/10/05 11:43:12;;;;;;;13.75;2.33;;;;;;;22.70;36.66;101843.50;5011037;28;20113;-81
2022/10/05 11:46:03;;;;;;;311.40;15.75;;;;;;;22.31;36.47;101801.34;4950173;29;20039;-82
2022/10/05 11:49:01;;;;;;;10.50;2.40;;;;;;;22.60;36.27;101839.19;4950604;29;20524;-85
2022/10/05 11:52:02;;;;;;;11.68;2.30;;;;;;;22.41;35.67;101836.81;4893447;29;20132;-84
2022/10/05 11:54:54;;;;;;;11.50;2.00;;;;;;;21.90;36.12;101780.44;4887773;29;20041;-87
2022/10/05 11:57:32;;;;;;;5.57;1.70;;;;;;;22.21;36.08;101815.22;4897500;29;20027;-89
2022/10/05 12:00:10;;;;;;;8.85;2.03;;;;;;;22.45;35.35;101841.78;4902478;29;20072;-91
2022/10/05 12:02:53;;;;;;;92.53;7.45;;;;;;;22.44;34.83;101790.72;4900130;29;20049;-90
2022/10/05 12:05:48;;;;;;;61.10;4.53;;;;;;;22.58;34.70;101836.63;5099046;23;20049;-92
2022/10/05 12:09:03;;;;;;;34.40;3.75;;;;;;;22.74;34.40;101842.13;5073541;22;20030;-93
2022/10/05 12:11:54;;;;;;;3.88;2.33;;;;;;;23.00;34.38;101841.00;5075979;23;20044;-91
2022/10/05 12:14:53;;;;;;;19.30;2.90;;;;;;;22.78;33.63;101796.81;5076663;28;20036;-96
2022/10/05 12:17:33;;;;;;;4.93;2.17;;;;;;;22.82;34.00;101832.16;5016751;28;20033;-92
2022/10/05 12:20:15;;;;;;;29.63;2.95;;;;;;;22.43;32.71;101821.91;5028216;28;20052;-89
2022/10/05 12:22:48;;;;;;;44.72;4.82;;;;;;;21.56;33.73;101758.63;5041318;28;20025;-87
2022/10/05 12:25:33;;;;;;;28.00;3.10;;;;;;;22.03;33.71;101825.50;5016858;28;20092;-93
2022/10/05 12:28:04;;;;;;;15.82;3.03;;;;;;;22.18;33.68;101811.97;5013481;28;20045;-80
2022/10/05 12:31:06;;;;;;;56.30;3.83;;;;;;;22.18;33.09;101828.41;5027490;28;20071;-82
2022/10/05 12:34:05;;;;;;;20.73;3.37;;;;;;;22.21;33.47;101830.81;5029777;28;20026;-82